createdAt,value
2022-12-03T00:01:02.756Z,-0.42
2022-12-03T00:06:04.569Z,-0.43
2022-12-03T00:11:08.141Z,-0.64
2022-12-03T00:16:09.902Z,-0.64
2022-12-03T00:21:11.647Z,-0.45
2022-12-03T00:26:13.262Z,-0.42
2022-12-03T00:31:14.919Z,-0.71
2022-12-03T00:36:16.966Z,-0.39
2022-12-03T00:41:18.637Z,-0.58
2022-12-03T00:46:21.737Z,-0.62
2022-12-03T00:51:23.852Z,-0.64
2022-12-03T00:56:25.752Z,-0.63
2022-12-03T01:01:27.758Z,-0.52
2022-12-03T01:06:30.031Z,-0.56
2022-12-03T01:11:37.660Z,-0.72
2022-12-03T01:16:40.479Z,-0.45
2022-12-03T01:21:49.983Z,-0.73
2022-12-03T01:26:52.290Z,-0.57
2022-12-03T01:32:12.542Z,-0.56
2022-12-03T01:37:14.434Z,-0.76
2022-12-03T01:42:29.519Z,-0.72
2022-12-03T01:47:34.789Z,-0.54
2022-12-03T01:52:39.272Z,-0.59
2022-12-03T01:57:45.989Z,-0.62
2022-12-03T02:02:55.060Z,-0.63
2022-12-03T02:07:57.294Z,-0.52
2022-12-03T02:13:08.598Z,-0.56
2022-12-03T02:18:10.802Z,-0.62
2022-12-03T02:23:28.529Z,-0.53
2022-12-03T02:28:30.382Z,-0.54
2022-12-03T02:33:32.540Z,-0.36
2022-12-03T02:38:35.814Z,-0.37
2022-12-03T02:43:38.174Z,-0.64
2022-12-03T02:48:41.869Z,-0.43
2022-12-03T02:53:47.565Z,-0.45
2022-12-03T02:58:54.926Z,-0.58
2022-12-03T03:03:57.267Z,-0.73
2022-12-03T03:09:02.888Z,-0.69
2022-12-03T03:14:04.780Z,-0.70
2022-12-03T03:19:06.509Z,-0.77
2022-12-03T03:24:08.254Z,-0.86
2022-12-03T03:29:10.114Z,-0.75
2022-12-03T03:34:12.731Z,-0.52
2022-12-03T03:39:14.539Z,-0.57
2022-12-03T03:44:16.240Z,-0.64
2022-12-03T03:49:17.912Z,-0.69
2022-12-03T03:54:19.702Z,-0.52
2022-12-03T03:59:21.809Z,-0.66
2022-12-03T04:04:26.777Z,-0.65
2022-12-03T04:09:28.504Z,-0.57
2022-12-03T04:14:31.990Z,-0.54
2022-12-03T04:19:33.668Z,-0.55
2022-12-03T04:24:35.319Z,-0.53
2022-12-03T04:29:37.024Z,-0.54
2022-12-03T04:34:57.583Z,-0.44
2022-12-03T04:39:59.380Z,-0.57
2022-12-03T04:45:01.068Z,-0.58
2022-12-03T04:50:02.705Z,-0.48
2022-12-03T04:55:04.627Z,-0.64
2022-12-03T05:00:06.965Z,-0.56
2022-12-03T05:05:09.247Z,-0.56
2022-12-03T05:10:12.108Z,-0.50
2022-12-03T05:15:13.809Z,-0.71
2022-12-03T05:20:34.654Z,-0.74
2022-12-03T05:25:36.366Z,-0.58
2022-12-03T05:30:38.167Z,-0.70
2022-12-03T05:35:39.918Z,-0.70
2022-12-03T05:40:41.629Z,-0.43
2022-12-03T05:45:44.437Z,-0.56
2022-12-03T05:50:46.940Z,-0.55
2022-12-03T05:55:48.602Z,-0.72
2022-12-03T06:00:50.260Z,-0.60
2022-12-03T06:05:51.845Z,-0.47
2022-12-03T06:10:53.510Z,-0.48
2022-12-03T06:15:55.183Z,-0.66
2022-12-03T06:20:56.823Z,-0.60
2022-12-03T06:25:58.452Z,-0.55
2022-12-03T06:31:00.173Z,-0.28
2022-12-03T06:36:01.895Z,-0.45
2022-12-03T06:41:03.609Z,-0.59
2022-12-03T06:46:05.566Z,-0.51
2022-12-03T06:51:07.312Z,-0.29
2022-12-03T06:56:09.152Z,-0.59
2022-12-03T07:01:10.867Z,-0.49
2022-12-03T07:06:13.095Z,-0.56
2022-12-03T07:11:33.097Z,-0.75
2022-12-03T07:16:35.943Z,-0.37
2022-12-03T07:21:37.981Z,-0.49
2022-12-03T07:26:40.054Z,-0.45
2022-12-03T07:32:06.599Z,-0.40
2022-12-03T07:37:08.360Z,-0.37
2022-12-03T07:42:10.092Z,-0.37
2022-12-03T07:47:11.799Z,-0.44
2022-12-03T07:52:13.609Z,-0.45
2022-12-03T07:57:15.399Z,-0.40
2022-12-03T08:02:21.396Z,-0.14
2022-12-03T08:07:24.048Z,-0.27
2022-12-03T08:12:42.995Z,-0.23
2022-12-03T08:17:46.911Z,-0.22
2022-12-03T08:22:51.348Z,-0.31
2022-12-03T08:27:57.385Z,-0.26
2022-12-03T08:32:59.580Z,-0.13
2022-12-03T08:38:12.931Z,0.02
2022-12-03T08:43:27.599Z,-0.02
2022-12-03T08:48:40.700Z,-0.04
2022-12-03T08:54:11.983Z,-0.13
2022-12-03T08:59:30.160Z,-0.13
2022-12-03T09:04:44.288Z,-0.14
2022-12-03T09:09:45.882Z,0.06
2022-12-03T09:14:47.553Z,0.19
2022-12-03T09:19:51.311Z,-0.03
2022-12-03T09:24:53.193Z,-0.06
2022-12-03T09:29:55.009Z,0.10
2022-12-03T09:34:56.889Z,0.14
2022-12-03T09:39:58.709Z,0.03
2022-12-03T09:45:01.740Z,0.17
2022-12-03T09:50:04.791Z,0.37
2022-12-03T09:55:13.810Z,0.20
2022-12-03T10:00:18.700Z,0.18
2022-12-03T10:05:21.885Z,0.12
2022-12-03T10:10:25.151Z,0.24
2022-12-03T10:15:27.442Z,0.15
2022-12-03T10:20:29.132Z,0.04
2022-12-03T10:25:30.890Z,0.20
2022-12-03T10:30:32.966Z,0.20
2022-12-03T10:35:41.180Z,0.32
2022-12-03T10:40:42.944Z,0.14
2022-12-03T10:45:46.466Z,0.07
2022-12-03T10:51:09.720Z,0.12
2022-12-03T10:56:17.389Z,0.04
2022-12-03T11:01:24.895Z,0.16
2022-12-03T11:06:26.673Z,0.14
2022-12-03T11:11:46.975Z,0.11
2022-12-03T11:16:51.460Z,0.29
2022-12-03T11:22:05.470Z,0.45
2022-12-03T11:27:16.941Z,0.44
2022-12-03T11:32:38.897Z,0.38
2022-12-03T11:37:40.588Z,0.39
2022-12-03T11:42:42.984Z,0.49
2022-12-03T11:47:47.859Z,0.70
2022-12-03T11:52:58.631Z,0.74
2022-12-03T11:58:03.808Z,0.61
2022-12-03T12:03:05.602Z,0.67
2022-12-03T12:08:19.563Z,0.73
2022-12-03T12:13:30.344Z,0.79
2022-12-03T12:18:55.542Z,0.73
2022-12-03T12:24:18.009Z,0.83
2022-12-03T12:29:19.733Z,0.74
2022-12-03T12:34:21.382Z,0.82
2022-12-03T12:39:23.126Z,0.69
2022-12-03T12:44:26.419Z,0.91
2022-12-03T12:49:29.686Z,0.73
2022-12-03T12:54:31.418Z,0.89
2022-12-03T12:59:33.099Z,0.84
2022-12-03T13:04:39.991Z,0.78
2022-12-03T13:09:41.689Z,0.87
2022-12-03T13:14:43.357Z,0.70
2022-12-03T13:20:00.561Z,0.67
2022-12-03T13:25:58.236Z,0.76
2022-12-03T13:30:55.958Z,0.66
2022-12-03T13:35:57.818Z,0.63
2022-12-03T13:41:02.764Z,0.65
2022-12-03T13:46:04.564Z,0.59
2022-12-03T13:51:25.938Z,0.55
2022-12-03T13:56:30.606Z,0.73
2022-12-03T14:01:32.765Z,0.72
2022-12-03T14:06:35.012Z,0.71
2022-12-03T14:11:55.763Z,0.69
2022-12-03T14:17:00.076Z,0.72
2022-12-03T14:22:02.664Z,0.67
2022-12-03T14:27:04.455Z,0.79
2022-12-03T14:32:06.335Z,0.75
2022-12-03T14:37:08.416Z,0.67
2022-12-03T14:42:16.901Z,0.58
2022-12-03T14:47:22.470Z,0.66
2022-12-03T14:52:24.118Z,0.65
2022-12-03T14:57:25.981Z,0.68
2022-12-03T15:02:28.934Z,0.81
2022-12-03T15:07:32.043Z,0.86
2022-12-03T15:12:35.725Z,0.94
2022-12-03T15:17:37.413Z,1.05
2022-12-03T15:22:39.280Z,0.88
2022-12-03T15:27:41.580Z,0.90
2022-12-03T15:32:43.175Z,1.16
2022-12-03T15:37:45.274Z,1.34
2022-12-03T15:42:47.270Z,1.22
2022-12-03T15:47:49.007Z,1.18
2022-12-03T15:52:50.745Z,1.43
2022-12-03T15:57:52.409Z,1.36
2022-12-03T16:02:54.136Z,1.34
2022-12-03T16:07:55.880Z,1.21
2022-12-03T16:12:57.525Z,1.14
2022-12-03T16:17:59.285Z,1.11
2022-12-03T16:23:00.973Z,1.16
2022-12-03T16:28:02.682Z,0.90
2022-12-03T16:33:04.463Z,0.78
2022-12-03T16:38:06.193Z,0.81
2022-12-03T16:43:09.691Z,0.84
2022-12-03T16:48:11.290Z,0.89
2022-12-03T16:53:13.435Z,0.80
2022-12-03T16:58:15.341Z,1.08
2022-12-03T17:03:20.129Z,1.27
2022-12-03T17:08:22.006Z,1.20
2022-12-03T17:13:23.827Z,1.22
2022-12-03T17:18:25.832Z,1.17
2022-12-03T17:23:27.627Z,0.94
2022-12-03T17:28:29.519Z,0.97
2022-12-03T17:33:31.222Z,0.97
2022-12-03T17:38:38.852Z,0.98
2022-12-03T17:43:41.050Z,1.05
2022-12-03T17:48:42.741Z,0.80
2022-12-03T17:53:44.620Z,0.91
2022-12-03T17:58:47.462Z,0.96
2022-12-03T18:03:49.235Z,0.93
2022-12-03T18:08:50.966Z,0.98
2022-12-03T18:13:52.690Z,0.89
2022-12-03T18:18:57.089Z,1.01
2022-12-03T18:24:02.283Z,0.95
2022-12-03T18:29:04.013Z,0.86
2022-12-03T18:34:05.724Z,0.91
2022-12-03T18:39:13.492Z,0.98
2022-12-03T18:44:15.147Z,1.25
2022-12-03T18:49:17.045Z,0.96
2022-12-03T18:54:18.726Z,1.13
2022-12-03T18:59:20.394Z,1.34
2022-12-03T19:04:22.525Z,1.27
2022-12-03T19:09:24.392Z,1.22
2022-12-03T19:14:26.166Z,1.27
2022-12-03T19:19:28.437Z,1.43
2022-12-03T19:24:30.626Z,1.20
2022-12-03T19:29:32.413Z,1.12
2022-12-03T19:34:34.287Z,1.16
2022-12-03T19:39:36.174Z,1.27
2022-12-03T19:44:37.943Z,1.14
2022-12-03T19:49:39.615Z,1.41
2022-12-03T19:54:41.248Z,1.31
2022-12-03T19:59:43.256Z,1.34
2022-12-03T20:04:44.939Z,1.20
2022-12-03T20:09:50.304Z,1.23
2022-12-03T20:14:52.029Z,1.31
2022-12-03T20:19:55.926Z,1.27
2022-12-03T20:24:57.792Z,1.39
2022-12-03T20:29:59.455Z,1.42
2022-12-03T20:35:03.500Z,1.51
2022-12-03T20:40:06.095Z,1.68
2022-12-03T20:45:08.461Z,1.69
2022-12-03T20:50:10.297Z,1.47
2022-12-03T20:55:12.099Z,1.61
2022-12-03T21:00:14.543Z,1.75
2022-12-03T21:05:16.960Z,1.64
2022-12-03T21:10:44.501Z,1.69
2022-12-03T21:15:46.655Z,1.47
2022-12-03T21:20:48.505Z,1.38
2022-12-03T21:25:50.409Z,1.56
2022-12-03T21:30:52.392Z,1.43
2022-12-03T21:35:55.571Z,1.58
2022-12-03T21:40:58.308Z,1.54
2022-12-03T21:46:04.219Z,1.37
2022-12-03T21:51:25.804Z,1.69
2022-12-03T21:56:30.381Z,1.51
2022-12-03T22:01:32.205Z,1.49
2022-12-03T22:06:34.048Z,1.72
2022-12-03T22:11:35.792Z,1.63
2022-12-03T22:16:37.548Z,1.63
2022-12-03T22:21:39.616Z,1.56
2022-12-03T22:26:41.228Z,1.57
2022-12-03T22:31:42.913Z,1.54
2022-12-03T22:36:44.548Z,1.58
2022-12-03T22:41:46.225Z,1.64
2022-12-03T22:46:48.003Z,1.52
2022-12-03T22:51:49.776Z,1.44
2022-12-03T22:56:51.521Z,1.50
2022-12-03T23:01:53.243Z,1.60
2022-12-03T23:06:54.887Z,1.55
2022-12-03T23:11:56.507Z,1.65
2022-12-03T23:16:58.147Z,1.55
2022-12-03T23:21:59.765Z,1.47
2022-12-03T23:27:01.395Z,1.47
2022-12-03T23:32:03.136Z,1.37
2022-12-03T23:37:04.842Z,1.47
2022-12-03T23:42:06.440Z,1.24
2022-12-03T23:47:08.107Z,1.42
2022-12-03T23:52:09.833Z,1.41
2022-12-03T23:57:12.654Z,1.47
